createdAt,value
2022-09-20T00:02:42.040Z,11.82
2022-09-20T00:05:45.588Z,11.83
2022-09-20T00:08:48.220Z,11.83
2022-09-20T00:11:49.607Z,11.79
2022-09-20T00:14:50.986Z,11.79
2022-09-20T00:17:52.386Z,11.68
2022-09-20T00:20:53.765Z,11.50
2022-09-20T00:23:57.320Z,11.60
2022-09-20T00:26:58.736Z,11.62
2022-09-20T00:30:00.185Z,11.68
2022-09-20T00:33:01.941Z,11.66
2022-09-20T00:36:03.426Z,11.61
2022-09-20T00:39:04.844Z,11.59
2022-09-20T00:42:06.620Z,11.60
2022-09-20T00:45:23.172Z,11.56
2022-09-20T00:48:30.124Z,11.42
2022-09-20T00:51:34.990Z,11.42
2022-09-20T00:54:36.572Z,11.49
2022-09-20T00:57:38.970Z,11.55
2022-09-20T01:00:42.550Z,11.63
2022-09-20T01:03:45.013Z,11.65
2022-09-20T01:06:48.140Z,11.67
2022-09-20T01:09:51.010Z,11.60
2022-09-20T01:12:53.766Z,11.60
2022-09-20T01:15:58.941Z,11.54
2022-09-20T01:19:06.009Z,11.50
2022-09-20T01:22:36.708Z,11.51
2022-09-20T01:26:03.528Z,11.46
2022-09-20T01:29:34.909Z,11.47
2022-09-20T01:32:57.808Z,11.45
2022-09-20T01:36:04.393Z,11.47
2022-09-20T01:39:18.726Z,11.51
2022-09-20T01:42:33.447Z,11.53
2022-09-20T01:45:34.951Z,11.54
2022-09-20T01:48:40.054Z,11.53
2022-09-20T01:52:31.580Z,11.53
2022-09-20T01:56:03.048Z,11.44
2022-09-20T01:59:32.847Z,11.35
2022-09-20T02:02:59.217Z,11.35
2022-09-20T02:06:21.488Z,11.34
2022-09-20T02:09:32.199Z,11.33
2022-09-20T02:12:54.160Z,11.35
2022-09-20T02:16:16.007Z,11.34
2022-09-20T02:19:57.409Z,11.39
2022-09-20T02:23:11.715Z,11.41
2022-09-20T02:26:56.947Z,11.42
2022-09-20T02:30:21.714Z,11.40
2022-09-20T02:33:39.982Z,11.40
2022-09-20T02:37:15.980Z,11.36
2022-09-20T02:40:26.494Z,11.32
2022-09-20T02:43:47.196Z,11.31
2022-09-20T02:47:20.822Z,11.32
2022-09-20T02:50:46.970Z,11.40
2022-09-20T02:54:06.392Z,11.37
2022-09-20T02:57:29.090Z,11.35
2022-09-20T03:00:44.284Z,11.24
2022-09-20T03:04:33.736Z,11.13
2022-09-20T03:07:57.963Z,11.13
2022-09-20T03:11:18.518Z,11.21
2022-09-20T03:14:27.548Z,11.24
2022-09-20T03:17:51.440Z,11.24
2022-09-20T03:21:22.685Z,11.24
2022-09-20T03:24:37.057Z,11.22
2022-09-20T03:27:49.096Z,11.25
2022-09-20T03:31:11.761Z,11.17
2022-09-20T03:34:31.818Z,11.10
2022-09-20T03:37:58.085Z,11.01
2022-09-20T03:41:13.953Z,11.00
2022-09-20T03:44:36.964Z,10.86
2022-09-20T03:47:44.309Z,10.85
2022-09-20T03:51:09.220Z,10.88
2022-09-20T03:54:32.188Z,10.90
2022-09-20T03:57:57.732Z,10.86
2022-09-20T04:01:20.959Z,10.84
2022-09-20T04:04:40.675Z,10.77
2022-09-20T04:08:00.979Z,10.77
2022-09-20T04:11:08.404Z,10.76
2022-09-20T04:14:18.282Z,10.75
2022-09-20T04:17:38.300Z,10.70
2022-09-20T04:20:46.414Z,10.70
2022-09-20T04:23:59.068Z,10.70
2022-09-20T04:27:05.880Z,10.66
2022-09-20T04:30:19.706Z,10.71
2022-09-20T04:33:33.697Z,10.66
2022-09-20T04:36:58.254Z,10.66
2022-09-20T04:40:14.529Z,10.64
2022-09-20T04:43:53.650Z,10.59
2022-09-20T04:47:42.851Z,10.57
2022-09-20T04:51:13.432Z,10.57
2022-09-20T04:54:49.312Z,10.51
2022-09-20T04:58:22.925Z,10.32
2022-09-20T05:02:08.340Z,10.37
2022-09-20T05:05:36.480Z,10.38
2022-09-20T05:08:59.345Z,10.41
2022-09-20T05:12:19.756Z,10.38
2022-09-20T05:15:38.480Z,10.31
2022-09-20T05:19:13.054Z,10.11
2022-09-20T05:22:42.350Z,10.14
2022-09-20T05:25:59.039Z,10.16
2022-09-20T05:29:25.110Z,10.20
2022-09-20T05:32:48.480Z,10.15
2022-09-20T05:36:34.389Z,10.20
2022-09-20T05:39:49.579Z,10.32
2022-09-20T05:43:05.986Z,10.34
2022-09-20T05:46:13.154Z,10.38
2022-09-20T05:49:41.933Z,10.33
2022-09-20T05:53:05.138Z,10.35
2022-09-20T05:56:19.050Z,10.40
2022-09-20T05:59:40.119Z,10.44
2022-09-20T06:03:10.378Z,10.57
2022-09-20T06:06:18.192Z,10.65
2022-09-20T06:09:41.013Z,10.67
2022-09-20T06:13:00.527Z,10.70
2022-09-20T06:16:05.130Z,10.60
2022-09-20T06:19:19.908Z,10.71
2022-09-20T06:22:29.641Z,10.75
2022-09-20T06:25:42.822Z,10.78
2022-09-20T06:28:54.221Z,10.87
2022-09-20T06:31:59.312Z,10.92
2022-09-20T06:35:03.397Z,11.12
2022-09-20T06:38:42.422Z,11.23
2022-09-20T06:41:44.731Z,11.34
2022-09-20T06:44:46.873Z,11.48
2022-09-20T06:47:48.377Z,11.43
2022-09-20T06:50:49.823Z,11.41
2022-09-20T06:53:52.551Z,11.41
2022-09-20T06:56:54.688Z,11.46
2022-09-20T06:59:56.125Z,11.55
2022-09-20T07:02:57.547Z,11.53
2022-09-20T07:06:00.481Z,11.55
2022-09-20T07:09:02.220Z,11.69
2022-09-20T07:12:03.877Z,11.87
2022-09-20T07:15:06.178Z,12.05
2022-09-20T07:18:08.113Z,12.17
2022-09-20T07:21:15.054Z,12.22
2022-09-20T07:24:16.436Z,12.44
2022-09-20T07:27:17.955Z,12.62
2022-09-20T07:30:20.265Z,12.59
2022-09-20T07:33:22.033Z,12.50
2022-09-20T07:36:23.666Z,12.61
2022-09-20T07:39:25.735Z,12.69
2022-09-20T07:42:29.007Z,12.65
2022-09-20T07:45:31.131Z,12.65
2022-09-20T07:48:35.142Z,12.83
2022-09-20T07:51:36.579Z,13.03
2022-09-20T07:54:38.111Z,12.96
2022-09-20T07:57:39.610Z,12.76
2022-09-20T08:00:40.980Z,12.70
2022-09-20T08:03:42.871Z,12.71
2022-09-20T08:06:45.362Z,12.58
2022-09-20T08:09:46.736Z,12.59
2022-09-20T08:16:11.886Z,12.68
2022-09-20T08:19:21.557Z,12.73
2022-09-20T08:22:23.145Z,13.00
2022-09-20T08:25:24.818Z,12.96
2022-09-20T08:28:26.202Z,12.98
2022-09-20T08:31:36.554Z,13.15
2022-09-20T08:34:39.534Z,13.05
2022-09-20T08:37:43.548Z,13.15
2022-09-20T08:40:45.112Z,13.06
2022-09-20T08:44:11.556Z,13.47
2022-09-20T08:47:36.498Z,13.78
2022-09-20T08:50:37.976Z,14.16
2022-09-20T08:53:49.116Z,14.25
2022-09-20T08:56:51.030Z,14.06
2022-09-20T08:59:52.837Z,13.93
2022-09-20T09:02:56.996Z,13.92
2022-09-20T09:05:58.685Z,14.15
2022-09-20T09:09:00.143Z,14.07
2022-09-20T09:12:01.920Z,13.92
2022-09-20T09:15:36.712Z,13.83
2022-09-20T09:18:41.252Z,14.05
2022-09-20T09:21:43.178Z,13.97
2022-09-20T09:24:44.880Z,13.86
2022-09-20T09:27:58.343Z,13.80
2022-09-20T09:31:28.882Z,13.80
2022-09-20T09:34:33.905Z,13.82
2022-09-20T09:37:35.296Z,13.99
2022-09-20T09:40:36.784Z,14.18
2022-09-20T09:43:40.473Z,14.23
2022-09-20T09:46:41.886Z,14.28
2022-09-20T09:50:02.677Z,14.33
2022-09-20T09:53:12.381Z,14.29
2022-09-20T09:56:34.560Z,14.51
2022-09-20T10:00:06.644Z,14.86
2022-09-20T10:03:31.873Z,14.69
2022-09-20T10:07:03.251Z,14.66
2022-09-20T10:10:43.436Z,14.68
2022-09-20T10:14:07.501Z,14.84
2022-09-20T10:17:27.524Z,14.87
2022-09-20T10:20:53.123Z,14.80
2022-09-20T10:24:33.442Z,14.97
2022-09-20T10:28:08.678Z,14.65
2022-09-20T10:31:26.030Z,14.63
2022-09-20T10:34:30.508Z,14.60
2022-09-20T10:37:49.071Z,14.57
2022-09-20T10:41:15.225Z,14.59
2022-09-20T10:44:19.394Z,14.48
2022-09-20T10:47:31.353Z,14.56
2022-09-20T10:50:45.482Z,14.48
2022-09-20T10:53:59.238Z,14.41
2022-09-20T10:57:26.809Z,14.56
2022-09-20T11:00:54.426Z,14.80
2022-09-20T11:04:12.149Z,14.88
2022-09-20T11:07:32.721Z,15.28
2022-09-20T11:10:42.966Z,15.38
2022-09-20T11:13:58.129Z,15.51
2022-09-20T11:17:15.737Z,15.86
2022-09-20T11:20:24.259Z,16.13
2022-09-20T11:23:51.312Z,16.16
2022-09-20T11:26:56.853Z,15.94
2022-09-20T11:30:04.230Z,15.76
2022-09-20T11:33:18.140Z,15.53
2022-09-20T11:36:26.800Z,15.41
2022-09-20T11:39:30.830Z,15.30
2022-09-20T11:42:36.351Z,15.16
2022-09-20T11:45:40.108Z,15.19
2022-09-20T11:48:51.521Z,15.28
2022-09-20T11:52:11.333Z,15.21
2022-09-20T11:55:24.424Z,15.12
2022-09-20T11:58:27.295Z,14.99
2022-09-20T12:01:32.501Z,14.91
2022-09-20T12:04:36.224Z,14.61
2022-09-20T12:07:40.898Z,14.48
2022-09-20T12:10:42.741Z,14.56
2022-09-20T12:13:55.256Z,14.55
2022-09-20T12:16:57.008Z,14.68
2022-09-20T12:19:58.713Z,14.77
2022-09-20T12:23:37.150Z,15.22
2022-09-20T12:26:41.787Z,15.62
2022-09-20T12:29:47.464Z,15.90
2022-09-20T12:32:54.999Z,15.94
2022-09-20T12:36:15.740Z,15.69
2022-09-20T12:39:22.551Z,15.64
2022-09-20T12:42:33.028Z,15.47
2022-09-20T12:45:35.442Z,15.43
2022-09-20T12:48:37.964Z,15.36
2022-09-20T12:51:57.646Z,15.35
2022-09-20T12:55:03.780Z,15.51
2022-09-20T12:58:14.180Z,15.67
2022-09-20T13:01:15.546Z,15.92
2022-09-20T13:04:55.348Z,16.20
2022-09-20T13:08:02.841Z,16.06
2022-09-20T13:11:07.309Z,15.97
2022-09-20T13:14:26.134Z,15.83
2022-09-20T13:17:31.713Z,16.12
2022-09-20T13:20:35.019Z,16.22
2022-09-20T13:23:46.618Z,16.38
2022-09-20T13:26:49.641Z,16.61
2022-09-20T13:29:51.717Z,16.51
2022-09-20T13:32:53.250Z,16.84
2022-09-20T13:35:58.022Z,16.77
2022-09-20T13:39:00.076Z,16.85
2022-09-20T13:42:09.058Z,16.68
2022-09-20T13:45:13.827Z,16.78
2022-09-20T13:48:16.606Z,16.73
2022-09-20T13:51:20.449Z,16.78
2022-09-20T13:54:33.170Z,17.06
2022-09-20T13:57:34.845Z,17.25
2022-09-20T14:00:38.133Z,17.21
2022-09-20T14:03:39.840Z,16.89
2022-09-20T14:06:42.384Z,16.49
2022-09-20T14:09:44.197Z,16.49
2022-09-20T14:12:49.012Z,16.34
2022-09-20T14:15:50.554Z,16.30
2022-09-20T14:18:52.166Z,16.31
2022-09-20T14:21:53.950Z,16.18
2022-09-20T14:25:12.422Z,16.04
2022-09-20T14:28:20.234Z,16.13
2022-09-20T14:31:31.575Z,16.01
2022-09-20T14:34:37.805Z,16.03
2022-09-20T14:37:59.270Z,15.95
2022-09-20T14:41:00.742Z,16.00
2022-09-20T14:44:03.535Z,15.92
2022-09-20T14:47:15.415Z,15.96
2022-09-20T14:50:54.453Z,16.05
2022-09-20T14:54:04.996Z,15.74
2022-09-20T14:57:06.568Z,15.86
2022-09-20T15:00:11.768Z,15.69
2022-09-20T15:03:16.332Z,15.85
2022-09-20T15:06:17.861Z,15.75
2022-09-20T15:09:21.602Z,15.80
2022-09-20T15:12:23.034Z,16.01
2022-09-20T15:15:24.489Z,15.89
2022-09-20T15:18:28.741Z,15.83
2022-09-20T15:21:30.412Z,15.89
2022-09-20T15:24:31.865Z,15.82
2022-09-20T15:27:33.616Z,15.72
2022-09-20T15:30:35.723Z,15.74
2022-09-20T15:33:37.480Z,15.77
2022-09-20T15:36:40.582Z,15.73
2022-09-20T15:39:41.940Z,15.73
2022-09-20T15:42:43.818Z,15.69
2022-09-20T15:45:53.592Z,15.72
2022-09-20T15:48:56.339Z,15.69
2022-09-20T15:51:57.767Z,15.66
2022-09-20T15:55:00.177Z,15.67
2022-09-20T15:58:01.573Z,15.60
2022-09-20T16:01:07.934Z,15.51
2022-09-20T16:04:12.382Z,15.40
2022-09-20T16:07:14.396Z,15.40
2022-09-20T16:10:15.842Z,15.43
2022-09-20T16:13:17.220Z,15.51
2022-09-20T16:16:18.700Z,15.50
2022-09-20T16:19:20.687Z,15.43
2022-09-20T16:22:22.323Z,15.38
2022-09-20T16:25:23.897Z,15.37
2022-09-20T16:28:25.424Z,15.34
2022-09-20T16:31:49.228Z,15.32
2022-09-20T16:34:51.040Z,15.30
2022-09-20T16:37:52.550Z,15.26
2022-09-20T16:40:55.601Z,15.26
2022-09-20T16:43:57.033Z,15.28
2022-09-20T16:46:58.578Z,15.28
2022-09-20T16:50:00.031Z,15.26
2022-09-20T16:53:01.408Z,15.28
2022-09-20T16:56:06.009Z,15.26
2022-09-20T16:59:08.085Z,15.30
2022-09-20T17:02:12.657Z,15.32
2022-09-20T17:05:14.169Z,15.28
2022-09-20T17:08:15.573Z,15.29
2022-09-20T17:11:21.648Z,15.21
2022-09-20T17:14:24.953Z,15.22
2022-09-20T17:17:26.411Z,15.23
2022-09-20T17:20:30.011Z,15.17
2022-09-20T17:23:35.486Z,15.13
2022-09-20T17:26:40.243Z,15.14
2022-09-20T17:29:41.664Z,15.10
2022-09-20T17:32:47.998Z,15.06
2022-09-20T17:35:52.530Z,14.97
2022-09-20T17:38:56.576Z,14.86
2022-09-20T17:42:01.329Z,14.77
2022-09-20T17:45:02.723Z,14.69
2022-09-20T17:48:04.620Z,14.69
2022-09-20T17:51:09.227Z,14.68
2022-09-20T17:54:14.677Z,14.66
2022-09-20T17:57:16.048Z,14.54
2022-09-20T18:00:17.418Z,14.40
2022-09-20T18:03:19.021Z,14.40
2022-09-20T18:06:29.424Z,14.36
2022-09-20T18:09:30.861Z,14.30
2022-09-20T18:12:32.234Z,14.24
2022-09-20T18:15:34.103Z,14.21
2022-09-20T18:18:35.599Z,14.18
2022-09-20T18:21:39.197Z,14.14
2022-09-20T18:24:40.561Z,14.04
2022-09-20T18:27:42.275Z,13.92
2022-09-20T18:30:46.085Z,13.83
2022-09-20T18:33:47.465Z,13.78
2022-09-20T18:36:57.489Z,13.62
2022-09-20T18:39:58.925Z,13.50
2022-09-20T18:43:04.506Z,13.41
2022-09-20T18:46:06.198Z,13.44
2022-09-20T18:49:09.580Z,13.47
2022-09-20T18:52:12.228Z,13.50
2022-09-20T18:55:14.690Z,13.51
2022-09-20T18:58:20.709Z,13.52
2022-09-20T19:01:50.268Z,13.50
2022-09-20T19:04:58.856Z,13.48
2022-09-20T19:08:17.140Z,13.48
2022-09-20T19:11:27.600Z,13.43
2022-09-20T19:14:40.320Z,13.37
2022-09-20T19:17:57.015Z,13.32
2022-09-20T19:21:18.940Z,13.34
2022-09-20T19:25:01.189Z,13.31
2022-09-20T19:28:02.764Z,13.12
2022-09-20T19:31:04.486Z,13.01
2022-09-20T19:34:15.197Z,12.90
2022-09-20T19:37:54.960Z,12.81
2022-09-20T19:41:47.179Z,12.85
2022-09-20T19:45:20.965Z,12.83
2022-09-20T19:48:37.131Z,12.75
2022-09-20T19:51:40.965Z,12.69
2022-09-20T19:54:46.648Z,12.62
2022-09-20T19:57:48.517Z,12.54
2022-09-20T20:00:50.161Z,12.45
2022-09-20T20:03:53.157Z,12.31
2022-09-20T20:07:27.866Z,12.24
2022-09-20T20:10:39.419Z,12.09
2022-09-20T20:14:03.027Z,12.00
2022-09-20T20:17:30.058Z,11.89
2022-09-20T20:20:39.480Z,11.94
2022-09-20T20:24:04.832Z,12.08
2022-09-20T20:27:06.468Z,12.10
2022-09-20T20:30:08.565Z,12.17
2022-09-20T20:33:16.791Z,12.13
2022-09-20T20:36:18.416Z,12.19
2022-09-20T20:39:20.013Z,12.22
2022-09-20T20:42:21.507Z,12.25
2022-09-20T20:45:22.873Z,12.28
2022-09-20T20:48:24.360Z,12.18
2022-09-20T20:51:27.145Z,12.08
2022-09-20T20:54:28.774Z,12.00
2022-09-20T20:57:31.264Z,11.96
2022-09-20T21:00:32.638Z,11.95
2022-09-20T21:03:35.258Z,11.98
2022-09-20T21:06:40.496Z,12.02
2022-09-20T21:09:42.305Z,12.05
2022-09-20T21:12:44.380Z,12.00
2022-09-20T21:15:46.319Z,11.97
2022-09-20T21:18:50.097Z,11.86
2022-09-20T21:21:51.721Z,11.82
2022-09-20T21:24:53.996Z,11.86
2022-09-20T21:27:55.457Z,11.86
2022-09-20T21:30:59.514Z,11.88
2022-09-20T21:34:06.974Z,11.86
2022-09-20T21:37:09.520Z,11.86
2022-09-20T21:40:11.173Z,11.76
2022-09-20T21:43:13.900Z,11.71
2022-09-20T21:46:17.908Z,11.65
2022-09-20T21:49:19.395Z,11.59
2022-09-20T21:52:20.766Z,11.55
2022-09-20T21:55:22.156Z,11.62
2022-09-20T21:58:24.015Z,11.61
2022-09-20T22:01:27.314Z,11.52
2022-09-20T22:04:29.091Z,11.42
2022-09-20T22:07:30.470Z,11.43
2022-09-20T22:10:31.930Z,11.42
2022-09-20T22:13:33.844Z,11.37
2022-09-20T22:16:37.841Z,11.24
2022-09-20T22:19:39.920Z,11.16
2022-09-20T22:22:41.398Z,11.22
2022-09-20T22:25:42.917Z,11.19
2022-09-20T22:28:44.327Z,11.08
2022-09-20T22:31:47.738Z,10.98
2022-09-20T22:34:49.096Z,10.97
2022-09-20T22:37:50.468Z,10.95
2022-09-20T22:40:53.795Z,10.98
2022-09-20T22:43:55.445Z,11.03
2022-09-20T22:46:56.814Z,11.06
2022-09-20T22:49:58.200Z,11.04
2022-09-20T22:52:59.576Z,10.99
2022-09-20T22:56:06.073Z,11.02
2022-09-20T22:59:12.608Z,11.00
2022-09-20T23:02:13.997Z,10.95
2022-09-20T23:05:16.958Z,10.90
2022-09-20T23:08:18.684Z,10.83
2022-09-20T23:11:20.473Z,10.77
2022-09-20T23:14:22.796Z,10.74
2022-09-20T23:17:24.232Z,10.64
2022-09-20T23:20:25.692Z,10.47
2022-09-20T23:23:27.674Z,10.25
2022-09-20T23:26:31.456Z,10.19
2022-09-20T23:29:33.508Z,10.21
2022-09-20T23:32:34.872Z,10.21
2022-09-20T23:35:42.579Z,10.05
2022-09-20T23:38:44.742Z,10.09
2022-09-20T23:41:50.802Z,10.13
2022-09-20T23:44:52.782Z,10.05
2022-09-20T23:47:54.186Z,10.00
2022-09-20T23:50:56.453Z,9.92
2022-09-20T23:53:58.196Z,9.78
2022-09-20T23:56:59.574Z,9.75
